createdAt,value
2019-04-23T00:00:29.417Z,12.66
2019-04-23T00:01:36.733Z,12.66
2019-04-23T00:02:29.119Z,12.70
2019-04-23T00:03:35.614Z,12.63
2019-04-23T00:04:30.121Z,12.70
2019-04-23T00:06:33.799Z,12.61
2019-04-23T00:07:46.651Z,12.59
2019-04-23T00:08:41.585Z,12.66
2019-04-23T00:09:32.863Z,12.61
2019-04-23T00:10:38.864Z,12.67
2019-04-23T00:11:32.429Z,12.61
2019-04-23T00:13:39.350Z,12.55
2019-04-23T00:14:38.015Z,12.55
2019-04-23T00:15:30.676Z,12.55
2019-04-23T00:16:30.203Z,12.55
2019-04-23T00:17:40.241Z,12.69
2019-04-23T00:18:36.817Z,12.54
2019-04-23T00:19:33.024Z,12.54
2019-04-23T00:20:39.257Z,12.55
2019-04-23T00:21:38.182Z,12.59
2019-04-23T00:22:36.678Z,12.58
2019-04-23T00:23:35.057Z,12.44
2019-04-23T00:24:47.471Z,12.58
2019-04-23T00:28:45.556Z,12.55
2019-04-23T00:29:40.309Z,12.59
2019-04-23T00:31:31.642Z,12.54
2019-04-23T00:32:34.962Z,12.48
2019-04-23T00:33:30.959Z,12.54
2019-04-23T00:34:37.541Z,12.62
2019-04-23T00:35:33.955Z,12.52
2019-04-23T00:36:57.866Z,12.55
2019-04-23T00:38:38.944Z,12.61
2019-04-23T00:39:39.015Z,12.62
2019-04-23T00:40:37.501Z,12.66
2019-04-23T00:41:36.484Z,12.61
2019-04-23T00:42:38.166Z,12.52
2019-04-23T00:43:37.769Z,12.66
2019-04-23T00:44:40.375Z,12.61
2019-04-23T00:45:39.874Z,12.51
2019-04-23T00:46:35.270Z,12.61
2019-04-23T00:47:37.922Z,12.66
2019-04-23T00:48:36.483Z,12.62
2019-04-23T00:49:32.527Z,12.62
2019-04-23T00:50:38.495Z,12.55
2019-04-23T00:51:32.958Z,12.62
2019-04-23T00:52:32.239Z,12.67
2019-04-23T00:53:26.952Z,12.69
2019-04-23T00:54:33.478Z,12.69
2019-04-23T00:55:30.771Z,12.63
2019-04-23T00:56:42.061Z,12.59
2019-04-23T00:57:35.574Z,12.66
2019-04-23T00:58:33.699Z,12.69
2019-04-23T00:59:41.151Z,12.52
2019-04-23T01:00:41.536Z,12.58
2019-04-23T01:01:36.914Z,12.62
2019-04-23T01:04:47.664Z,12.52
2019-04-23T01:05:41.013Z,12.61
2019-04-23T01:06:46.001Z,12.49
2019-04-23T01:07:45.694Z,12.56
2019-04-23T01:08:45.533Z,12.59
2019-04-23T01:09:48.901Z,12.55
2019-04-23T01:10:45.326Z,12.44
2019-04-23T01:11:43.417Z,12.44
2019-04-23T01:12:46.350Z,12.58
2019-04-23T01:13:48.180Z,12.40
2019-04-23T01:14:40.523Z,12.51
2019-04-23T01:15:46.499Z,12.48
2019-04-23T01:16:38.199Z,12.41
2019-04-23T01:18:54.570Z,12.54
2019-04-23T01:19:48.435Z,12.48
2019-04-23T01:20:44.463Z,12.44
2019-04-23T01:21:22.395Z,12.48
2019-04-23T01:22:21.209Z,12.46
2019-04-23T01:23:28.552Z,12.44
2019-04-23T01:24:25.123Z,12.59
2019-04-23T01:25:34.145Z,12.54
2019-04-23T01:26:48.443Z,12.44
2019-04-23T01:27:51.535Z,12.37
2019-04-23T01:28:47.939Z,12.43
2019-04-23T01:29:52.496Z,12.46
2019-04-23T01:30:49.153Z,12.37
2019-04-23T01:31:49.065Z,12.43
2019-04-23T01:32:44.093Z,12.38
2019-04-23T01:33:53.215Z,12.36
2019-04-23T01:34:54.197Z,12.49
2019-04-23T01:35:52.292Z,12.49
2019-04-23T01:36:42.995Z,12.55
2019-04-23T01:38:00.410Z,12.46
2019-04-23T01:38:55.238Z,12.49
2019-04-23T01:39:45.434Z,12.49
2019-04-23T01:40:40.611Z,12.58
2019-04-23T01:41:47.746Z,12.58
2019-04-23T01:42:58.697Z,12.49
2019-04-23T01:43:49.198Z,12.48
2019-04-23T01:44:52.986Z,12.54
2019-04-23T01:45:35.848Z,12.56
2019-04-23T01:46:49.282Z,12.41
2019-04-23T01:48:50.286Z,12.38
2019-04-23T01:49:58.209Z,12.40
2019-04-23T01:50:48.753Z,12.40
2019-04-23T01:51:55.707Z,12.37
2019-04-23T01:53:45.231Z,12.46
2019-04-23T01:54:48.376Z,12.44
2019-04-23T01:55:46.910Z,12.38
2019-04-23T01:56:41.669Z,12.34
2019-04-23T01:57:56.345Z,12.46
2019-04-23T01:58:44.033Z,12.48
2019-04-23T01:59:49.777Z,12.51
2019-04-23T02:00:47.534Z,12.38
2019-04-23T02:02:49.621Z,12.34
2019-04-23T02:03:50.117Z,12.41
2019-04-23T02:04:58.867Z,12.43
2019-04-23T02:05:48.188Z,12.51
2019-04-23T02:06:45.796Z,12.37
2019-04-23T02:08:03.510Z,12.41
2019-04-23T02:08:50.364Z,12.46
2019-04-23T02:09:52.881Z,12.44
2019-04-23T02:10:51.296Z,12.36
2019-04-23T02:11:53.591Z,12.38
2019-04-23T02:12:49.326Z,12.38
2019-04-23T02:14:49.897Z,12.46
2019-04-23T02:15:49.046Z,12.52
2019-04-23T02:16:42.606Z,12.59
2019-04-23T02:17:52.066Z,12.46
2019-04-23T02:18:49.294Z,12.48
2019-04-23T02:19:59.514Z,12.44
2019-04-23T02:20:47.826Z,12.40
2019-04-23T02:21:56.415Z,12.49
2019-04-23T02:23:42.362Z,12.56
2019-04-23T02:24:51.069Z,12.58
2019-04-23T02:26:43.459Z,12.52
2019-04-23T02:27:52.253Z,12.46
2019-04-23T02:31:57.472Z,12.40
2019-04-23T02:33:01.154Z,12.36
2019-04-23T02:34:14.735Z,12.38
2019-04-23T02:34:57.851Z,12.36
2019-04-23T02:36:55.058Z,12.34
2019-04-23T02:38:00.625Z,12.33
2019-04-23T02:42:12.381Z,12.33
2019-04-23T02:43:59.059Z,12.29
2019-04-23T02:46:01.930Z,12.34
2019-04-23T02:47:03.447Z,12.37
2019-04-23T02:48:01.517Z,12.40
2019-04-23T02:50:08.839Z,12.43
2019-04-23T02:50:43.874Z,12.34
2019-04-23T02:52:03.495Z,12.40
2019-04-23T02:52:56.143Z,12.40
2019-04-23T02:55:00.878Z,12.44
2019-04-23T02:56:05.743Z,12.51
2019-04-23T02:57:50.411Z,12.48
2019-04-23T02:59:05.713Z,12.43
2019-04-23T03:00:09.407Z,12.36
2019-04-23T03:01:06.848Z,12.33
2019-04-23T03:01:53.963Z,12.37
2019-04-23T03:03:23.183Z,12.37
2019-04-23T03:06:04.880Z,12.25
2019-04-23T03:08:00.400Z,12.08
2019-04-23T03:09:07.076Z,12.00
2019-04-23T03:10:09.974Z,11.96
2019-04-23T03:11:07.786Z,11.90
2019-04-23T03:12:06.383Z,11.88
2019-04-23T03:13:09.744Z,11.94
2019-04-23T03:15:14.053Z,11.88
2019-04-23T03:17:10.471Z,11.78
2019-04-23T03:18:27.750Z,11.79
2019-04-23T03:20:11.166Z,11.85
2019-04-23T03:21:24.471Z,11.81
2019-04-23T03:23:24.946Z,11.93
2019-04-23T03:24:09.345Z,11.87
2019-04-23T03:25:11.934Z,11.93
2019-04-23T03:26:09.217Z,11.88
2019-04-23T03:27:19.196Z,11.90
2019-04-23T03:27:55.951Z,11.93
2019-04-23T03:29:14.290Z,11.85
2019-04-23T03:34:33.967Z,11.85
2019-04-23T03:34:45.579Z,11.82
2019-04-23T03:37:23.354Z,11.85
2019-04-23T03:38:13.327Z,11.81
2019-04-23T03:38:51.494Z,11.88
2019-04-23T03:40:01.830Z,11.84
2019-04-23T03:41:15.001Z,11.78
2019-04-23T03:43:57.051Z,11.84
2019-04-23T03:45:13.992Z,11.96
2019-04-23T03:46:16.100Z,11.78
2019-04-23T03:47:04.061Z,11.82
2019-04-23T03:48:08.090Z,11.77
2019-04-23T03:48:59.492Z,11.74
2019-04-23T03:50:04.564Z,11.79
2019-04-23T03:50:56.229Z,11.78
2019-04-23T03:53:03.510Z,11.66
2019-04-23T03:54:21.804Z,11.67
2019-04-23T03:55:06.291Z,11.59
2019-04-23T03:57:18.480Z,11.53
2019-04-23T03:58:02.391Z,11.48
2019-04-23T03:59:11.941Z,11.56
2019-04-23T04:00:15.615Z,11.57
2019-04-23T04:01:07.568Z,11.53
2019-04-23T04:02:10.662Z,11.48
2019-04-23T04:03:12.750Z,11.51
2019-04-23T04:04:22.880Z,11.49
2019-04-23T04:05:12.584Z,11.45
2019-04-23T04:06:16.363Z,11.41
2019-04-23T04:08:13.301Z,11.41
2019-04-23T04:11:14.254Z,11.36
2019-04-23T04:12:10.420Z,11.39
2019-04-23T04:13:07.014Z,11.53
2019-04-23T04:14:12.548Z,11.54
2019-04-23T04:15:31.121Z,11.44
2019-04-23T04:18:28.616Z,11.31
2019-04-23T04:19:27.712Z,11.41
2019-04-23T04:20:07.392Z,11.31
2019-04-23T04:28:12.350Z,11.30
2019-04-23T04:30:21.323Z,11.20
2019-04-23T04:33:10.130Z,11.12
2019-04-23T04:34:11.669Z,11.20
2019-04-23T04:35:16.206Z,11.27
2019-04-23T04:37:35.556Z,11.28
2019-04-23T04:38:18.116Z,11.30
2019-04-23T04:39:03.290Z,11.31
2019-04-23T04:40:14.138Z,11.27
2019-04-23T04:41:01.043Z,11.28
2019-04-23T04:42:04.578Z,11.24
2019-04-23T04:44:22.260Z,11.30
2019-04-23T04:46:18.596Z,11.20
2019-04-23T04:48:00.468Z,11.27
2019-04-23T04:49:59.555Z,11.42
2019-04-23T04:51:13.659Z,11.36
2019-04-23T04:55:07.607Z,11.38
2019-04-23T04:56:14.281Z,11.30
2019-04-23T04:57:00.708Z,11.31
2019-04-23T04:57:58.064Z,11.27
2019-04-23T05:00:44.031Z,11.31
2019-04-23T05:02:08.792Z,11.19
2019-04-23T05:03:54.867Z,11.28
2019-04-23T05:07:11.016Z,11.36
2019-04-23T05:08:17.318Z,11.28
2019-04-23T05:09:37.128Z,11.31
2019-04-23T05:12:18.938Z,11.49
2019-04-23T05:14:06.788Z,11.57
2019-04-23T05:18:17.420Z,11.72
2019-04-23T05:22:06.577Z,11.96
2019-04-23T05:23:18.348Z,11.98
2019-04-23T05:25:05.769Z,12.21
2019-04-23T05:26:08.512Z,12.21
2019-04-23T05:27:04.694Z,12.33
2019-04-23T05:28:25.007Z,12.36
2019-04-23T05:29:06.232Z,12.58
2019-04-23T05:30:13.540Z,12.51
2019-04-23T05:31:12.273Z,12.54
2019-04-23T05:32:10.110Z,12.70
2019-04-23T05:33:11.844Z,12.69
2019-04-23T05:34:04.535Z,12.79
2019-04-23T05:35:06.738Z,12.84
2019-04-23T05:37:06.410Z,12.88
2019-04-23T05:40:18.684Z,13.13
2019-04-23T05:41:10.112Z,13.17
2019-04-23T05:42:07.164Z,13.25
2019-04-23T05:43:08.092Z,13.24
2019-04-23T05:44:10.434Z,13.29
2019-04-23T05:45:02.563Z,13.38
2019-04-23T05:46:12.741Z,13.39
2019-04-23T05:47:11.518Z,13.35
2019-04-23T05:49:05.978Z,13.48
2019-04-23T05:50:15.541Z,13.48
2019-04-23T05:51:16.169Z,13.50
2019-04-23T05:53:09.937Z,13.66
2019-04-23T05:54:08.389Z,13.68
2019-04-23T05:57:01.878Z,13.71
2019-04-23T05:58:13.211Z,13.76
2019-04-23T05:59:06.737Z,13.73
2019-04-23T06:00:04.121Z,13.79
2019-04-23T06:01:26.361Z,13.71
2019-04-23T06:02:07.614Z,13.71
2019-04-23T06:04:14.119Z,13.88
2019-04-23T06:05:22.448Z,13.86
2019-04-23T06:06:14.281Z,13.84
2019-04-23T06:07:15.002Z,13.91
2019-04-23T06:08:26.504Z,14.02
2019-04-23T06:09:07.810Z,14.02
2019-04-23T06:10:06.335Z,13.98
2019-04-23T06:11:09.341Z,14.01
2019-04-23T06:12:07.616Z,14.12
2019-04-23T06:13:09.210Z,14.09
2019-04-23T06:15:05.332Z,13.94
2019-04-23T06:16:04.994Z,13.99
2019-04-23T06:17:12.959Z,14.01
2019-04-23T06:18:08.060Z,14.21
2019-04-23T06:19:11.179Z,14.16
2019-04-23T06:23:18.109Z,14.13
2019-04-23T06:24:15.150Z,14.27
2019-04-23T06:25:15.076Z,14.30
2019-04-23T06:27:06.769Z,14.38
2019-04-23T06:28:08.149Z,14.38
2019-04-23T06:29:05.199Z,14.20
2019-04-23T06:30:01.659Z,14.27
2019-04-23T06:31:06.348Z,14.24
2019-04-23T06:32:00.121Z,14.17
2019-04-23T06:33:11.202Z,14.26
2019-04-23T06:34:15.430Z,14.29
2019-04-23T06:35:04.939Z,14.34
2019-04-23T06:36:05.873Z,14.42
2019-04-23T06:37:06.865Z,14.46
2019-04-23T06:39:02.948Z,14.44
2019-04-23T06:41:11.714Z,14.45
2019-04-23T06:42:03.954Z,14.54
2019-04-23T06:43:07.733Z,14.53
2019-04-23T06:44:12.960Z,14.59
2019-04-23T06:45:01.087Z,14.59
2019-04-23T06:46:09.995Z,14.59
2019-04-23T06:47:03.781Z,14.56
2019-04-23T06:48:09.050Z,14.59
2019-04-23T06:49:02.115Z,14.63
2019-04-23T06:49:59.755Z,14.75
2019-04-23T06:53:02.430Z,14.60
2019-04-23T06:54:04.857Z,14.53
2019-04-23T06:56:19.183Z,14.66
2019-04-23T06:58:04.730Z,14.79
2019-04-23T06:59:05.880Z,14.86
2019-04-23T07:02:15.072Z,14.80
2019-04-23T07:03:07.691Z,14.79
2019-04-23T07:04:04.955Z,14.85
2019-04-23T07:06:20.642Z,15.12
2019-04-23T07:07:31.377Z,15.12
2019-04-23T07:08:05.875Z,15.11
2019-04-23T07:10:06.111Z,15.07
2019-04-23T07:11:11.166Z,15.07
2019-04-23T07:12:05.792Z,15.05
2019-04-23T07:13:04.873Z,15.18
2019-04-23T07:14:02.468Z,15.15
2019-04-23T07:15:24.975Z,15.19
2019-04-23T07:16:04.584Z,15.34
2019-04-23T07:17:05.350Z,15.31
2019-04-23T07:18:03.958Z,15.34
2019-04-23T07:19:12.771Z,15.34
2019-04-23T07:20:04.250Z,15.33
2019-04-23T07:21:11.750Z,15.31
2019-04-23T07:23:08.388Z,15.35
2019-04-23T07:24:06.878Z,15.40
2019-04-23T07:25:17.586Z,15.43
2019-04-23T07:26:08.190Z,15.33
2019-04-23T07:27:01.332Z,15.40
2019-04-23T07:28:08.653Z,15.46
2019-04-23T07:29:09.062Z,15.56
2019-04-23T07:30:10.384Z,15.59
2019-04-23T07:31:08.854Z,15.68
2019-04-23T07:33:05.665Z,15.78
2019-04-23T07:34:10.274Z,15.77
2019-04-23T07:35:08.988Z,15.73
2019-04-23T07:36:08.656Z,15.85
2019-04-23T07:38:16.535Z,16.10
2019-04-23T07:40:54.579Z,16.08
2019-04-23T07:42:10.818Z,16.27
2019-04-23T07:44:14.246Z,16.14
2019-04-23T07:45:02.516Z,16.23
2019-04-23T07:46:12.130Z,16.18
2019-04-23T07:47:21.834Z,16.16
2019-04-23T07:48:10.983Z,16.17
2019-04-23T07:49:04.596Z,16.03
2019-04-23T07:50:19.222Z,16.18
2019-04-23T07:51:03.667Z,16.50
2019-04-23T07:52:11.028Z,16.47
2019-04-23T07:54:07.746Z,16.47
2019-04-23T07:55:07.898Z,16.50
2019-04-23T07:57:12.135Z,16.40
2019-04-23T07:58:17.200Z,16.45
2019-04-23T07:59:03.967Z,16.47
2019-04-23T08:00:07.849Z,16.54
2019-04-23T08:02:10.996Z,16.52
2019-04-23T08:03:14.436Z,16.51
2019-04-23T08:04:03.111Z,16.67
2019-04-23T08:06:04.354Z,16.78
2019-04-23T08:07:06.669Z,16.80
2019-04-23T08:08:01.730Z,16.59
2019-04-23T08:09:03.572Z,16.51
2019-04-23T08:10:12.371Z,16.44
2019-04-23T08:11:23.452Z,16.52
2019-04-23T08:12:15.627Z,16.59
2019-04-23T08:13:08.548Z,16.72
2019-04-23T08:14:03.135Z,16.77
2019-04-23T08:16:11.404Z,16.99
2019-04-23T08:17:05.555Z,16.80
2019-04-23T08:18:07.084Z,16.98
2019-04-23T08:18:57.367Z,16.98
2019-04-23T08:21:02.443Z,16.98
2019-04-23T08:22:13.901Z,16.87
2019-04-23T08:23:08.908Z,17.00
2019-04-23T08:25:17.812Z,16.95
2019-04-23T08:26:13.516Z,17.06
2019-04-23T08:27:04.641Z,17.05
2019-04-23T08:28:10.300Z,17.24
2019-04-23T08:30:03.338Z,17.21
2019-04-23T08:31:12.439Z,17.36
2019-04-23T08:32:12.448Z,17.33
2019-04-23T08:33:04.309Z,17.21
2019-04-23T08:35:01.211Z,16.99
2019-04-23T08:36:04.427Z,17.18
2019-04-23T08:39:05.349Z,17.36
2019-04-23T08:40:01.463Z,17.39
2019-04-23T08:41:14.213Z,17.45
2019-04-23T08:42:32.609Z,17.54
2019-04-23T08:43:12.866Z,17.73
2019-04-23T08:44:07.350Z,17.70
2019-04-23T08:45:10.447Z,17.62
2019-04-23T08:46:11.813Z,17.60
2019-04-23T08:47:17.174Z,17.60
2019-04-23T08:48:12.409Z,17.22
2019-04-23T08:49:08.520Z,17.33
2019-04-23T08:49:59.387Z,17.58
2019-04-23T08:51:11.284Z,17.65
2019-04-23T08:52:10.474Z,17.91
2019-04-23T08:53:17.944Z,17.94
2019-04-23T08:54:03.057Z,18.09
2019-04-23T08:55:07.596Z,18.11
2019-04-23T08:56:05.118Z,18.14
2019-04-23T08:57:56.154Z,17.99
2019-04-23T08:59:11.070Z,17.91
2019-04-23T09:00:05.612Z,18.01
2019-04-23T09:01:05.049Z,18.07
2019-04-23T09:03:04.647Z,18.25
2019-04-23T09:04:00.352Z,18.25
2019-04-23T09:06:06.307Z,18.10
2019-04-23T09:07:12.883Z,18.19
2019-04-23T09:09:04.158Z,18.20
2019-04-23T09:10:07.879Z,18.32
2019-04-23T09:12:04.476Z,18.11
2019-04-23T09:13:26.318Z,18.13
2019-04-23T09:15:07.780Z,18.32
2019-04-23T09:16:05.050Z,18.46
2019-04-23T09:17:06.149Z,18.47
2019-04-23T09:18:04.260Z,18.26
2019-04-23T09:19:08.887Z,18.26
2019-04-23T09:21:05.780Z,17.81
2019-04-23T09:22:07.226Z,18.10
2019-04-23T09:22:55.428Z,18.26
2019-04-23T09:24:03.733Z,18.32
2019-04-23T09:25:18.532Z,18.49
2019-04-23T09:25:57.808Z,18.57
2019-04-23T09:27:07.355Z,18.57
2019-04-23T09:28:17.765Z,18.62
2019-04-23T09:29:19.167Z,18.64
2019-04-23T09:30:08.022Z,18.56
2019-04-23T09:31:14.498Z,18.54
2019-04-23T09:33:08.182Z,18.65
2019-04-23T09:34:07.857Z,18.53
2019-04-23T09:35:15.139Z,18.26
2019-04-23T09:36:06.478Z,18.39
2019-04-23T09:37:16.002Z,18.31
2019-04-23T09:37:59.650Z,18.59
2019-04-23T09:39:08.236Z,18.60
2019-04-23T09:40:14.635Z,18.36
2019-04-23T09:42:02.328Z,18.39
2019-04-23T09:43:08.907Z,18.36
2019-04-23T09:44:22.309Z,18.26
2019-04-23T09:46:06.405Z,18.59
2019-04-23T09:47:10.710Z,18.66
2019-04-23T09:48:13.892Z,18.89
2019-04-23T09:49:09.291Z,18.79
2019-04-23T09:50:01.798Z,18.78
2019-04-23T09:51:02.556Z,18.72
2019-04-23T09:52:07.395Z,18.72
2019-04-23T09:53:09.671Z,18.54
2019-04-23T09:54:04.426Z,18.51
2019-04-23T09:55:59.785Z,18.72
2019-04-23T09:56:57.051Z,18.91
2019-04-23T09:59:10.882Z,19.15
2019-04-23T10:00:10.733Z,19.17
2019-04-23T10:01:10.422Z,18.97
2019-04-23T10:01:57.406Z,18.78
2019-04-23T10:02:53.343Z,19.09
2019-04-23T10:03:52.161Z,19.12
2019-04-23T10:04:51.996Z,19.07
2019-04-23T10:05:48.307Z,19.05
2019-04-23T10:06:38.944Z,18.86
2019-04-23T10:07:48.649Z,18.68
2019-04-23T10:08:42.030Z,18.74
2019-04-23T10:09:36.346Z,18.82
2019-04-23T10:10:36.443Z,18.99
2019-04-23T10:11:37.368Z,19.20
2019-04-23T10:12:35.900Z,19.42
2019-04-23T10:13:36.403Z,19.65
2019-04-23T10:14:36.724Z,19.70
2019-04-23T10:15:40.160Z,19.72
2019-04-23T10:16:36.998Z,19.55
2019-04-23T10:17:36.098Z,19.47
2019-04-23T10:18:37.219Z,19.40
2019-04-23T10:19:36.940Z,19.15
2019-04-23T10:20:36.335Z,19.32
2019-04-23T10:21:35.661Z,19.46
2019-04-23T10:22:37.977Z,19.72
2019-04-23T10:23:37.050Z,19.67
2019-04-23T10:24:36.913Z,19.50
2019-04-23T10:25:36.050Z,19.60
2019-04-23T10:26:35.597Z,19.64
2019-04-23T10:27:36.860Z,19.60
2019-04-23T10:28:35.962Z,19.75
2019-04-23T10:29:36.352Z,19.75
2019-04-23T10:30:36.564Z,20.04
2019-04-23T10:31:35.770Z,20.05
2019-04-23T10:32:35.899Z,20.15
2019-04-23T10:33:35.516Z,20.05
2019-04-23T10:34:46.034Z,20.23
2019-04-23T10:35:44.584Z,20.30
2019-04-23T10:36:36.641Z,20.02
2019-04-23T10:37:44.818Z,19.64
2019-04-23T10:38:36.377Z,19.55
2019-04-23T10:39:38.987Z,19.68
2019-04-23T10:40:38.761Z,19.76
2019-04-23T10:41:37.821Z,19.70
2019-04-23T10:42:38.511Z,19.98
2019-04-23T10:43:39.172Z,19.97
2019-04-23T10:44:35.524Z,20.01
2019-04-23T10:45:57.647Z,20.22
2019-04-23T10:46:53.147Z,20.44
2019-04-23T10:48:12.212Z,20.54
2019-04-23T10:50:31.780Z,20.19
2019-04-23T10:50:59.698Z,20.25
2019-04-23T10:52:13.482Z,20.23
2019-04-23T10:53:10.290Z,20.38
2019-04-23T10:54:15.844Z,20.51
2019-04-23T10:55:00.778Z,20.57
2019-04-23T10:56:00.618Z,20.57
2019-04-23T10:56:59.851Z,20.75
2019-04-23T10:58:01.931Z,20.83
2019-04-23T10:59:06.514Z,21.08
2019-04-23T10:59:53.443Z,21.18
2019-04-23T11:01:04.495Z,21.05
2019-04-23T11:02:24.093Z,21.12
2019-04-23T11:03:12.002Z,21.12
2019-04-23T11:04:22.574Z,20.97
2019-04-23T11:06:06.851Z,20.72
2019-04-23T11:07:25.184Z,20.88
2019-04-23T11:08:01.963Z,21.16
2019-04-23T11:10:16.027Z,21.12
2019-04-23T11:11:24.084Z,21.38
2019-04-23T11:12:32.467Z,21.18
2019-04-23T11:13:25.892Z,21.06
2019-04-23T11:14:25.165Z,20.93
2019-04-23T11:15:33.728Z,20.87
2019-04-23T11:17:26.018Z,20.90
2019-04-23T11:18:24.122Z,21.11
2019-04-23T11:19:25.806Z,21.09
2019-04-23T11:20:33.837Z,21.11
2019-04-23T11:21:31.354Z,20.94
2019-04-23T11:22:38.950Z,21.00
2019-04-23T11:23:15.152Z,21.01
2019-04-23T11:24:29.459Z,21.37
2019-04-23T11:26:22.490Z,21.79
2019-04-23T11:27:22.550Z,21.67
2019-04-23T11:28:34.817Z,21.43
2019-04-23T11:29:27.877Z,21.36
2019-04-23T11:31:26.288Z,21.12
2019-04-23T11:32:46.767Z,21.26
2019-04-23T11:33:20.020Z,21.21
2019-04-23T11:34:46.020Z,21.15
2019-04-23T11:37:37.871Z,21.58
2019-04-23T11:38:50.913Z,21.75
2019-04-23T11:39:28.435Z,21.63
2019-04-23T11:40:23.169Z,21.73
2019-04-23T11:41:25.202Z,21.49
2019-04-23T11:42:18.155Z,21.42
2019-04-23T11:43:20.354Z,21.43
2019-04-23T11:44:28.819Z,21.27
2019-04-23T11:45:41.669Z,21.42
2019-04-23T11:47:56.933Z,21.52
2019-04-23T11:49:39.113Z,21.19
2019-04-23T11:50:32.805Z,21.15
2019-04-23T11:50:56.017Z,21.42
2019-04-23T11:52:33.974Z,21.36
2019-04-23T11:55:35.768Z,21.45
2019-04-23T11:56:35.559Z,21.38
2019-04-23T11:57:32.470Z,21.53
2019-04-23T11:59:31.871Z,21.52
2019-04-23T12:00:30.817Z,21.68
2019-04-23T12:01:40.858Z,21.71
2019-04-23T12:02:29.667Z,21.63
2019-04-23T12:03:13.873Z,21.45
2019-04-23T12:04:37.165Z,21.66
2019-04-23T12:05:29.001Z,21.64
2019-04-23T12:07:22.621Z,21.86
2019-04-23T12:08:29.472Z,21.73
2019-04-23T12:09:25.924Z,21.94
2019-04-23T12:10:31.379Z,21.98
2019-04-23T12:11:49.013Z,21.67
2019-04-23T12:12:26.825Z,21.74
2019-04-23T12:13:28.516Z,21.71
2019-04-23T12:14:31.021Z,21.83
2019-04-23T12:15:30.477Z,21.68
2019-04-23T12:16:20.460Z,21.67
2019-04-23T12:17:24.885Z,21.79
2019-04-23T12:18:30.251Z,21.93
2019-04-23T12:19:45.834Z,21.91
2019-04-23T12:20:28.562Z,21.94
2019-04-23T12:21:20.406Z,21.99
2019-04-23T12:22:23.521Z,21.70
2019-04-23T12:23:38.199Z,21.74
2019-04-23T12:24:28.848Z,21.99
2019-04-23T12:25:26.820Z,22.29
2019-04-23T12:26:33.924Z,22.51
2019-04-23T12:27:23.703Z,22.26
2019-04-23T12:28:20.758Z,22.31
2019-04-23T12:29:29.274Z,22.24
2019-04-23T12:30:27.545Z,22.20
2019-04-23T12:31:26.452Z,22.15
2019-04-23T12:32:37.474Z,21.91
2019-04-23T12:34:26.167Z,22.39
2019-04-23T12:35:21.526Z,22.44
2019-04-23T12:36:33.989Z,21.94
2019-04-23T12:37:24.155Z,21.94
2019-04-23T12:39:23.904Z,22.27
2019-04-23T12:40:23.434Z,21.91
2019-04-23T12:41:20.984Z,21.68
2019-04-23T12:42:41.329Z,21.83
2019-04-23T12:44:24.196Z,21.79
2019-04-23T12:46:26.572Z,22.23
2019-04-23T12:47:37.942Z,22.49
2019-04-23T12:48:23.853Z,22.41
2019-04-23T12:49:34.062Z,22.52
2019-04-23T12:50:41.855Z,22.54
2019-04-23T12:51:29.925Z,22.63
2019-04-23T12:52:17.620Z,22.76
2019-04-23T12:53:25.804Z,22.63
2019-04-23T12:54:35.750Z,22.82
2019-04-23T12:55:23.414Z,22.96
2019-04-23T12:56:30.272Z,22.69
2019-04-23T12:57:32.697Z,22.61
2019-04-23T12:58:20.400Z,22.67
2019-04-23T12:59:17.148Z,22.76
2019-04-23T13:00:22.550Z,22.99
2019-04-23T13:01:25.782Z,22.91
2019-04-23T13:02:31.502Z,22.81
2019-04-23T13:03:17.119Z,22.61
2019-04-23T13:04:20.591Z,22.78
2019-04-23T13:05:14.536Z,22.82
2019-04-23T13:06:17.345Z,22.48
2019-04-23T13:07:30.326Z,22.48
2019-04-23T13:09:36.890Z,22.11
2019-04-23T13:10:30.421Z,22.12
2019-04-23T13:11:28.271Z,22.42
2019-04-23T13:12:30.289Z,22.42
2019-04-23T13:13:23.893Z,22.44
2019-04-23T13:14:29.950Z,22.26
2019-04-23T13:15:18.837Z,22.15
2019-04-23T13:16:25.275Z,21.96
2019-04-23T13:18:17.290Z,22.44
2019-04-23T13:19:33.968Z,22.44
2019-04-23T13:21:38.470Z,22.15
2019-04-23T13:22:23.371Z,22.31
2019-04-23T13:24:15.728Z,22.21
2019-04-23T13:25:19.643Z,22.35
2019-04-23T13:26:30.918Z,22.33
2019-04-23T13:27:23.858Z,22.12
2019-04-23T13:29:30.472Z,22.39
2019-04-23T13:30:25.003Z,22.41
2019-04-23T13:32:20.724Z,22.38
2019-04-23T13:33:30.809Z,22.15
2019-04-23T13:34:23.100Z,22.21
2019-04-23T13:35:40.705Z,22.17
2019-04-23T13:37:26.235Z,22.20
2019-04-23T13:39:20.372Z,22.54
2019-04-23T13:40:23.523Z,22.38
2019-04-23T13:41:31.557Z,22.23
2019-04-23T13:42:22.466Z,22.24
2019-04-23T13:43:30.324Z,22.39
2019-04-23T13:44:16.395Z,22.09
2019-04-23T13:45:33.382Z,21.98
2019-04-23T13:46:32.944Z,21.68
2019-04-23T13:47:31.693Z,21.31
2019-04-23T13:49:19.756Z,21.75
2019-04-23T13:50:30.795Z,21.98
2019-04-23T13:51:24.088Z,21.82
2019-04-23T13:52:42.806Z,21.91
2019-04-23T13:54:44.072Z,21.64
2019-04-23T13:55:26.766Z,21.71
2019-04-23T13:57:49.724Z,21.73
2019-04-23T13:58:22.615Z,21.66
2019-04-23T13:59:21.695Z,21.46
2019-04-23T14:00:25.032Z,21.38
2019-04-23T14:01:26.288Z,21.36
2019-04-23T14:02:34.578Z,21.46
2019-04-23T14:03:21.660Z,21.73
2019-04-23T14:04:34.827Z,21.94
2019-04-23T14:05:23.921Z,21.99
2019-04-23T14:06:25.715Z,22.06
2019-04-23T14:07:24.557Z,21.71
2019-04-23T14:08:22.930Z,21.66
2019-04-23T14:09:21.616Z,21.71
2019-04-23T14:10:36.653Z,21.68
2019-04-23T14:11:23.278Z,21.64
2019-04-23T14:12:18.193Z,21.82
2019-04-23T14:14:24.984Z,22.01
2019-04-23T14:15:27.158Z,21.91
2019-04-23T14:17:26.936Z,21.77
2019-04-23T14:18:43.337Z,21.68
2019-04-23T14:19:06.781Z,21.71
2019-04-23T14:22:43.494Z,21.91
2019-04-23T14:23:27.305Z,21.75
2019-04-23T14:24:38.938Z,21.38
2019-04-23T14:27:19.784Z,21.27
2019-04-23T14:28:23.303Z,21.21
2019-04-23T14:29:21.080Z,21.58
2019-04-23T14:30:23.370Z,21.68
2019-04-23T14:32:29.498Z,21.40
2019-04-23T14:35:32.364Z,21.52
2019-04-23T14:36:19.599Z,21.43
2019-04-23T14:37:38.187Z,21.45
2019-04-23T14:39:22.244Z,21.82
2019-04-23T14:41:23.191Z,22.33
2019-04-23T14:43:25.690Z,22.26
2019-04-23T14:44:16.187Z,22.30
2019-04-23T14:45:29.551Z,22.19
2019-04-23T14:47:24.032Z,22.14
2019-04-23T14:48:27.995Z,22.15
2019-04-23T14:49:20.029Z,22.09
2019-04-23T14:51:26.372Z,22.01
2019-04-23T14:52:27.230Z,22.04
2019-04-23T14:53:18.279Z,21.98
2019-04-23T14:54:23.133Z,22.01
2019-04-23T14:56:19.040Z,22.19
2019-04-23T14:57:25.935Z,22.20
2019-04-23T14:59:21.968Z,22.48
2019-04-23T15:00:28.743Z,22.44
2019-04-23T15:02:23.131Z,22.17
2019-04-23T15:04:10.781Z,21.98
2019-04-23T15:05:17.313Z,21.98
2019-04-23T15:07:23.727Z,21.66
2019-04-23T15:08:25.240Z,21.73
2019-04-23T15:09:22.930Z,21.94
2019-04-23T15:10:24.609Z,21.93
2019-04-23T15:11:26.489Z,22.06
2019-04-23T15:13:18.747Z,21.94
2019-04-23T15:14:17.163Z,22.01
2019-04-23T15:15:19.322Z,21.93
2019-04-23T15:17:20.052Z,21.81
2019-04-23T15:18:24.964Z,22.08
2019-04-23T15:20:20.364Z,22.35
2019-04-23T15:21:42.944Z,22.59
2019-04-23T15:23:33.216Z,22.76
2019-04-23T15:24:23.238Z,23.32
2019-04-23T15:25:30.264Z,23.03
2019-04-23T15:27:22.384Z,22.69
2019-04-23T15:28:00.775Z,22.89
2019-04-23T15:28:09.372Z,23.38
2019-04-23T15:28:58.555Z,23.39
2019-04-23T15:30:06.928Z,23.59
2019-04-23T15:32:21.647Z,23.92
2019-04-23T15:33:34.810Z,24.00
2019-04-23T15:34:30.446Z,24.05
2019-04-23T15:35:22.088Z,24.14
2019-04-23T15:37:33.838Z,23.77
2019-04-23T15:38:33.998Z,23.72
2019-04-23T15:39:38.115Z,23.63
2019-04-23T15:40:22.975Z,23.57
2019-04-23T15:41:23.634Z,23.72
2019-04-23T15:42:21.354Z,23.92
2019-04-23T15:43:14.598Z,24.11
2019-04-23T15:44:25.207Z,24.21
2019-04-23T15:45:19.398Z,24.18
2019-04-23T15:46:21.531Z,23.87
2019-04-23T15:47:19.196Z,23.84
2019-04-23T15:48:20.343Z,24.04
2019-04-23T15:52:40.201Z,24.51
2019-04-23T15:53:24.344Z,24.98
2019-04-23T15:54:19.711Z,24.70
2019-04-23T15:55:18.059Z,24.19
2019-04-23T15:56:27.189Z,23.94
2019-04-23T15:57:30.753Z,23.90
2019-04-23T15:58:37.252Z,23.84
2019-04-23T15:59:29.573Z,23.56
2019-04-23T16:00:15.742Z,23.15
2019-04-23T16:01:27.157Z,22.99
2019-04-23T16:01:48.043Z,23.11
2019-04-23T16:02:48.027Z,22.52
2019-04-23T16:03:49.692Z,22.31